Columbia Station, Ohio
Current Conditions -  °F | °C
As of 7:51 AM on Thursday 23 Oct 2014 (Local Time) from KCLE Reporting Station
Few Clouds Few Clouds  
Wind Chill: 45°   Ceiling: Unl
Heat Index: 45°   Visibility: 10mi
Dew Point: 42°   Wind: 3mph
Humidity: 90%   Direction: 280°W
Pressure: 30.22"   Gusts: NA
Location:  41.31°N, 81.95°W
Report Text: KCLE 231151Z 28003KT 10SM FEW016 07/06 A3022 RMK AO2 SLP237 T00720056 10094 20056 50002 $
Loading
Personal Weather Stations






























Interactive Weather Map
Tropical Storm Tracking
New forecast layout! Learn more

10-Day Weather Forecast

Advertisements
Track Severe Weather on mobile